createdAt,value
2018-04-08T00:00:16.384Z,9.40
2018-04-08T00:02:44.141Z,9.40
2018-04-08T00:05:11.806Z,9.30
2018-04-08T00:07:39.569Z,9.30
2018-04-08T00:10:07.482Z,9.20
2018-04-08T00:12:35.222Z,9.30
2018-04-08T00:15:03.996Z,9.30
2018-04-08T00:17:31.865Z,9.20
2018-04-08T00:19:59.426Z,9.20
2018-04-08T00:22:26.997Z,9.30
2018-04-08T00:24:55.064Z,9.30
2018-04-08T00:27:22.629Z,9.30
2018-04-08T00:29:50.589Z,9.40
2018-04-08T00:32:18.661Z,9.40
2018-04-08T00:34:46.738Z,9.30
2018-04-08T00:37:14.205Z,9.20
2018-04-08T00:39:42.676Z,9.20
2018-04-08T00:42:10.749Z,9.20
2018-04-08T00:44:38.414Z,9.30
2018-04-08T00:47:06.078Z,9.20
2018-04-08T00:49:33.945Z,9.30
2018-04-08T00:52:02.322Z,9.30
2018-04-08T00:54:37.985Z,9.30
2018-04-08T00:57:05.743Z,9.20
2018-04-08T00:59:33.501Z,9.20
2018-04-08T01:02:01.178Z,9.10
2018-04-08T01:04:28.847Z,9.10
2018-04-08T01:06:57.158Z,9.10
2018-04-08T01:09:25.333Z,9.10
2018-04-08T01:11:53.974Z,9.00
2018-04-08T01:14:21.534Z,9.00
2018-04-08T01:16:49.293Z,8.90
2018-04-08T01:19:16.857Z,8.70
2018-04-08T01:21:46.154Z,8.50
2018-04-08T01:24:13.817Z,8.50
2018-04-08T01:26:41.380Z,8.50
2018-04-08T01:29:09.349Z,8.50
2018-04-08T01:31:36.917Z,8.50
2018-04-08T01:34:04.683Z,8.50
2018-04-08T01:36:32.657Z,8.50
2018-04-08T01:39:00.113Z,8.40
2018-04-08T01:41:27.682Z,8.30
2018-04-08T01:43:56.252Z,8.30
2018-04-08T01:46:23.725Z,8.30
2018-04-08T01:48:52.094Z,8.20
2018-04-08T01:51:19.858Z,8.20
2018-04-08T01:53:47.522Z,8.30
2018-04-08T01:56:15.064Z,8.40
2018-04-08T01:58:42.662Z,8.40
2018-04-08T02:01:11.049Z,8.40
2018-04-08T02:03:39.405Z,8.40
2018-04-08T02:06:07.170Z,8.40
2018-04-08T02:08:34.730Z,8.30
2018-04-08T02:11:02.290Z,8.20
2018-04-08T02:13:30.358Z,8.20
2018-04-08T02:15:57.897Z,8.20
2018-04-08T02:18:25.378Z,8.20
2018-04-08T02:20:53.243Z,8.20
2018-04-08T02:23:20.806Z,8.20
2018-04-08T02:25:48.476Z,8.20
2018-04-08T02:28:16.235Z,8.10
2018-04-08T02:30:43.897Z,8.10
2018-04-08T02:33:11.559Z,8.10
2018-04-08T02:35:39.526Z,7.90
2018-04-08T02:38:07.073Z,7.80
2018-04-08T02:40:34.636Z,7.70
2018-04-08T02:43:02.315Z,7.70
2018-04-08T02:45:29.977Z,7.70
2018-04-08T02:47:57.647Z,7.70
2018-04-08T02:50:26.223Z,7.80
2018-04-08T02:52:53.890Z,7.80
2018-04-08T02:55:21.545Z,7.80
2018-04-08T02:57:49.422Z,7.80
2018-04-08T03:00:17.083Z,7.80
2018-04-08T03:02:44.848Z,7.60
2018-04-08T03:05:12.711Z,7.60
2018-04-08T03:07:40.378Z,7.50
2018-04-08T03:10:08.138Z,7.50
2018-04-08T03:12:36.001Z,7.50
2018-04-08T03:15:03.871Z,7.50
2018-04-08T03:17:31.537Z,7.50
2018-04-08T03:19:59.298Z,7.30
2018-04-08T03:22:26.854Z,7.30
2018-04-08T03:24:54.326Z,7.20
2018-04-08T03:27:22.037Z,7.20
2018-04-08T03:29:49.849Z,7.10
2018-04-08T03:32:17.438Z,7.20
2018-04-08T03:34:44.972Z,7.10
2018-04-08T03:37:12.630Z,7.10
2018-04-08T03:39:40.498Z,7.00
2018-04-08T03:42:09.693Z,6.90
2018-04-08T03:44:37.358Z,6.90
2018-04-08T03:47:05.018Z,6.80
2018-04-08T03:49:32.681Z,6.80
2018-04-08T03:52:00.138Z,6.60
2018-04-08T03:54:27.710Z,6.70
2018-04-08T03:56:55.488Z,6.70
2018-04-08T03:59:23.850Z,6.60
2018-04-08T04:01:51.409Z,6.50
2018-04-08T04:04:19.273Z,6.60
2018-04-08T04:06:46.846Z,6.50
2018-04-08T04:09:14.602Z,6.50
2018-04-08T04:11:42.366Z,6.40
2018-04-08T04:14:10.037Z,6.40
2018-04-08T04:16:39.404Z,6.30
2018-04-08T04:19:18.977Z,6.30
2018-04-08T04:21:58.518Z,6.30
2018-04-08T04:24:37.859Z,6.30
2018-04-08T04:27:05.526Z,6.30
2018-04-08T04:29:33.077Z,6.30
2018-04-08T04:32:00.542Z,6.40
2018-04-08T04:34:28.304Z,6.50
2018-04-08T04:36:55.774Z,6.50
2018-04-08T04:39:24.248Z,6.50
2018-04-08T04:41:52.113Z,6.50
2018-04-08T04:44:19.769Z,6.60
2018-04-08T04:46:47.348Z,6.50
2018-04-08T04:49:15.513Z,6.40
2018-04-08T04:51:43.169Z,6.40
2018-04-08T04:54:10.755Z,6.50
2018-04-08T04:56:39.225Z,6.50
2018-04-08T04:59:07.593Z,6.60
2018-04-08T05:01:35.067Z,6.50
2018-04-08T05:04:03.943Z,6.60
2018-04-08T05:06:31.502Z,6.60
2018-04-08T05:08:59.046Z,6.70
2018-04-08T05:11:26.825Z,6.70
2018-04-08T05:13:54.384Z,6.70
2018-04-08T05:16:21.950Z,6.60
2018-04-08T05:18:49.926Z,6.60
2018-04-08T05:21:18.198Z,6.60
2018-04-08T05:23:45.749Z,6.60
2018-04-08T05:26:13.274Z,6.70
2018-04-08T05:28:40.757Z,6.80
2018-04-08T05:31:08.232Z,6.80
2018-04-08T05:33:36.807Z,6.90
2018-04-08T05:36:04.461Z,6.90
2018-04-08T05:38:32.029Z,6.90
2018-04-08T05:41:00.541Z,7.10
2018-04-08T05:43:28.796Z,7.20
2018-04-08T05:45:57.057Z,7.30
2018-04-08T05:48:24.929Z,7.20
2018-04-08T05:50:52.687Z,7.30
2018-04-08T05:53:20.246Z,7.50
2018-04-08T05:55:48.318Z,7.70
2018-04-08T05:58:15.973Z,8.00
2018-04-08T06:00:43.647Z,8.20
2018-04-08T06:03:12.017Z,8.70
2018-04-08T06:05:39.474Z,8.60
2018-04-08T06:08:07.043Z,8.90
2018-04-08T06:10:35.614Z,9.20
2018-04-08T06:13:03.194Z,9.20
2018-04-08T06:15:31.758Z,9.70
2018-04-08T06:17:59.526Z,9.70
2018-04-08T06:20:27.308Z,10.00
2018-04-08T06:22:55.566Z,10.30
2018-04-08T06:25:23.882Z,10.50
2018-04-08T06:27:51.358Z,10.50
2018-04-08T06:30:18.884Z,10.80
2018-04-08T06:32:46.521Z,11.10
2018-04-08T06:35:14.894Z,11.90
2018-04-08T06:37:42.510Z,11.90
2018-04-08T06:40:10.076Z,11.80
2018-04-08T06:42:37.547Z,11.50
2018-04-08T06:45:05.021Z,11.70
2018-04-08T06:47:32.788Z,11.80
2018-04-08T06:50:00.251Z,12.00
2018-04-08T06:52:27.821Z,12.80
2018-04-08T06:54:56.287Z,12.80
2018-04-08T06:57:24.278Z,12.80
2018-04-08T06:59:52.634Z,12.80
2018-04-08T07:02:20.298Z,12.90
2018-04-08T07:04:47.956Z,12.80
2018-04-08T07:07:15.514Z,12.80
2018-04-08T07:09:43.073Z,12.70
2018-04-08T07:12:11.050Z,12.90
2018-04-08T07:14:38.710Z,12.90
2018-04-08T07:17:06.468Z,12.90
2018-04-08T07:19:34.433Z,12.90
2018-04-08T07:22:02.184Z,12.90
2018-04-08T07:24:29.758Z,13.10
2018-04-08T07:26:57.638Z,13.40
2018-04-08T07:29:25.879Z,14.20
2018-04-08T07:31:53.557Z,14.20
2018-04-08T07:34:21.327Z,14.70
2018-04-08T07:36:48.895Z,15.40
2018-04-08T07:39:17.278Z,16.70
2018-04-08T07:41:45.858Z,17.00
2018-04-08T07:44:15.302Z,17.10
2018-04-08T07:46:43.510Z,16.70
2018-04-08T07:49:11.066Z,16.70
2018-04-08T07:51:38.657Z,17.00
2018-04-08T07:54:07.864Z,18.40
2018-04-08T07:56:36.441Z,19.10
2018-04-08T07:59:03.922Z,19.00
2018-04-08T08:01:32.523Z,19.60
2018-04-08T08:04:00.649Z,19.50
2018-04-08T08:06:28.422Z,20.10
2018-04-08T08:08:55.970Z,20.00
2018-04-08T08:11:23.538Z,19.90
2018-04-08T08:13:51.236Z,20.10
2018-04-08T08:16:18.862Z,19.40
2018-04-08T08:18:47.439Z,19.80
2018-04-08T08:21:15.021Z,19.70
2018-04-08T08:23:43.399Z,19.60
2018-04-08T08:26:11.754Z,19.30
2018-04-08T08:28:39.817Z,19.30
2018-04-08T08:31:07.286Z,19.40
2018-04-08T08:33:34.941Z,19.20
2018-04-08T08:36:02.422Z,19.00
2018-04-08T08:38:30.696Z,19.20
2018-04-08T08:40:58.541Z,19.20
2018-04-08T08:43:26.099Z,20.10
2018-04-08T08:45:53.585Z,20.70
2018-04-08T08:48:22.044Z,20.00
2018-04-08T08:50:50.282Z,20.60
2018-04-08T08:53:17.756Z,20.60
2018-04-08T08:55:45.438Z,21.30
2018-04-08T08:58:13.202Z,21.30
2018-04-08T09:00:40.794Z,21.20
2018-04-08T09:03:08.321Z,21.50
2018-04-08T09:05:35.834Z,21.60
2018-04-08T09:08:03.309Z,21.30
2018-04-08T09:10:30.778Z,21.30
2018-04-08T09:12:58.552Z,21.60
2018-04-08T09:15:26.037Z,21.30
2018-04-08T09:17:53.525Z,21.60
2018-04-08T09:20:22.670Z,22.00
2018-04-08T09:23:00.063Z,22.30
2018-04-08T09:25:28.262Z,22.20
2018-04-08T09:27:55.902Z,22.30
2018-04-08T09:30:24.894Z,22.50
2018-04-08T09:32:52.558Z,22.40
2018-04-08T09:35:20.134Z,22.50
2018-04-08T09:37:48.394Z,22.40
2018-04-08T09:40:15.949Z,22.40
2018-04-08T09:42:43.458Z,22.30
2018-04-08T09:45:11.073Z,22.50
2018-04-08T09:47:39.857Z,22.60
2018-04-08T09:50:07.620Z,22.60
2018-04-08T09:52:35.406Z,22.60
2018-04-08T09:55:04.020Z,22.40
2018-04-08T09:57:49.142Z,22.70
2018-04-08T10:00:22.634Z,22.60
2018-04-08T10:02:55.925Z,22.60
2018-04-08T10:05:23.847Z,22.50
2018-04-08T10:07:51.391Z,22.50
2018-04-08T10:10:18.873Z,22.90
2018-04-08T10:12:46.578Z,23.40
2018-04-08T10:15:14.159Z,23.60
2018-04-08T10:17:43.032Z,23.90
2018-04-08T10:20:10.505Z,23.90
2018-04-08T10:22:38.754Z,24.00
2018-04-08T10:25:06.422Z,24.00
2018-04-08T10:27:34.391Z,24.30
2018-04-08T10:30:01.863Z,24.70
2018-04-08T10:32:30.435Z,24.30
2018-04-08T10:34:58.713Z,24.10
2018-04-08T10:37:27.081Z,24.60
2018-04-08T10:39:54.743Z,24.50
2018-04-08T10:42:24.110Z,24.20
2018-04-08T10:44:51.646Z,24.20
2018-04-08T10:47:19.215Z,24.50
2018-04-08T10:49:46.682Z,24.90
2018-04-08T10:52:14.486Z,25.60
2018-04-08T10:54:42.245Z,25.30
2018-04-08T10:57:10.022Z,25.60
2018-04-08T10:59:38.267Z,25.90
2018-04-08T11:02:05.738Z,25.90
2018-04-08T11:04:33.293Z,26.20
2018-04-08T11:07:00.874Z,26.30
2018-04-08T11:09:29.109Z,26.40
2018-04-08T11:11:56.763Z,26.40
2018-04-08T11:14:24.266Z,26.70
2018-04-08T11:16:53.032Z,26.70
2018-04-08T11:19:20.517Z,26.70
2018-04-08T11:21:48.753Z,27.00
2018-04-08T11:24:16.319Z,27.00
2018-04-08T11:26:44.554Z,27.00
2018-04-08T11:29:12.533Z,27.00
2018-04-08T11:31:40.586Z,27.10
2018-04-08T11:34:08.058Z,27.00
2018-04-08T11:36:35.525Z,26.80
2018-04-08T11:39:04.151Z,27.00
2018-04-08T11:41:31.811Z,26.90
2018-04-08T11:43:59.373Z,26.70
2018-04-08T11:46:27.065Z,26.70
2018-04-08T11:48:54.698Z,26.80
2018-04-08T11:51:22.282Z,27.00
2018-04-08T11:53:50.014Z,27.10
2018-04-08T11:56:17.580Z,27.30
2018-04-08T11:58:45.347Z,26.50
2018-04-08T12:01:12.818Z,27.00
2018-04-08T12:03:41.114Z,26.90
2018-04-08T12:06:08.694Z,26.80
2018-04-08T12:08:36.270Z,26.80
2018-04-08T12:11:03.737Z,27.10
2018-04-08T12:13:32.041Z,27.00
2018-04-08T12:16:00.623Z,27.00
2018-04-08T12:18:28.903Z,27.10
2018-04-08T12:20:57.173Z,27.00
2018-04-08T12:23:24.816Z,27.00
2018-04-08T12:25:52.287Z,27.30
2018-04-08T12:28:19.749Z,27.20
2018-04-08T12:30:48.134Z,27.60
2018-04-08T12:33:15.694Z,27.80
2018-04-08T12:35:43.971Z,27.30
2018-04-08T12:38:12.552Z,27.20
2018-04-08T12:40:40.041Z,27.10
2018-04-08T12:43:07.543Z,27.00
2018-04-08T12:45:35.010Z,26.50
2018-04-08T12:48:02.782Z,27.00
2018-04-08T12:50:30.361Z,27.50
2018-04-08T12:52:58.730Z,27.40
2018-04-08T12:55:27.197Z,27.50
2018-04-08T12:57:54.861Z,27.50
2018-04-08T13:00:22.377Z,27.30
2018-04-08T13:02:49.990Z,27.20
2018-04-08T13:05:18.226Z,26.90
2018-04-08T13:07:45.954Z,26.80
2018-04-08T13:10:14.162Z,27.20
2018-04-08T13:12:41.646Z,27.20
2018-04-08T13:15:09.310Z,27.40
2018-04-08T13:17:36.885Z,27.10
2018-04-08T13:20:05.118Z,26.10
2018-04-08T13:22:32.914Z,26.00
2018-04-08T13:25:00.470Z,25.60
2018-04-08T13:27:28.002Z,25.40
2018-04-08T13:29:55.791Z,25.00
2018-04-08T13:32:24.193Z,24.60
2018-04-08T13:34:52.753Z,24.50
2018-04-08T13:37:20.329Z,24.50
2018-04-08T13:39:48.606Z,24.60
2018-04-08T13:42:17.068Z,24.60
2018-04-08T13:44:44.730Z,24.60
2018-04-08T13:47:12.199Z,24.50
2018-04-08T13:49:40.670Z,24.10
2018-04-08T13:52:08.147Z,24.00
2018-04-08T13:54:36.386Z,23.80
2018-04-08T13:57:04.058Z,23.80
2018-04-08T13:59:31.521Z,23.90
2018-04-08T14:01:59.094Z,24.00
2018-04-08T14:04:27.662Z,23.90
2018-04-08T14:06:55.138Z,23.90
2018-04-08T14:09:23.601Z,23.50
2018-04-08T14:11:51.073Z,23.50
2018-04-08T14:14:19.437Z,23.70
2018-04-08T14:16:48.118Z,23.60
2018-04-08T14:19:15.891Z,23.60
2018-04-08T14:21:44.156Z,23.40
2018-04-08T14:24:12.122Z,23.40
2018-04-08T14:26:39.686Z,23.40
2018-04-08T14:29:07.610Z,23.30
2018-04-08T14:31:35.214Z,23.30
2018-04-08T14:34:03.534Z,23.40
2018-04-08T14:36:31.097Z,23.40
2018-04-08T14:38:58.814Z,23.30
2018-04-08T14:41:26.470Z,23.30
2018-04-08T14:43:54.053Z,23.20
2018-04-08T14:46:22.617Z,23.20
2018-04-08T14:48:50.173Z,23.20
2018-04-08T14:51:17.643Z,23.10
2018-04-08T14:53:46.218Z,22.90
2018-04-08T14:56:14.282Z,22.90
2018-04-08T14:58:41.955Z,22.80
2018-04-08T15:01:10.190Z,22.80
2018-04-08T15:03:37.985Z,22.80
2018-04-08T15:06:05.562Z,22.70
2018-04-08T15:08:34.241Z,22.60
2018-04-08T15:11:02.478Z,22.60
2018-04-08T15:13:29.953Z,22.60
2018-04-08T15:15:59.858Z,22.40
2018-04-08T15:18:27.437Z,22.40
2018-04-08T15:20:55.097Z,22.40
2018-04-08T15:23:22.858Z,22.30
2018-04-08T15:25:50.738Z,22.30
2018-04-08T15:28:18.973Z,22.30
2018-04-08T15:30:46.786Z,22.20
2018-04-08T15:33:15.963Z,22.20
2018-04-08T15:35:43.439Z,22.20
2018-04-08T15:38:11.701Z,22.10
2018-04-08T15:40:39.341Z,22.10
2018-04-08T15:43:06.834Z,22.00
2018-04-08T15:45:35.098Z,21.80
2018-04-08T15:48:03.170Z,21.80
2018-04-08T15:50:30.926Z,21.70
2018-04-08T15:52:58.705Z,21.80
2018-04-08T15:55:27.173Z,21.80
2018-04-08T15:57:55.433Z,21.80
2018-04-08T16:00:24.470Z,21.70
2018-04-08T16:02:51.973Z,21.70
2018-04-08T16:05:19.462Z,21.70
2018-04-08T16:07:47.077Z,21.70
2018-04-08T16:10:14.577Z,21.70
2018-04-08T16:12:42.337Z,21.70
2018-04-08T16:15:09.873Z,21.70
2018-04-08T16:17:37.345Z,21.70
2018-04-08T16:20:04.921Z,21.80
2018-04-08T16:22:33.618Z,21.80
2018-04-08T16:25:01.988Z,21.80
2018-04-08T16:27:32.826Z,21.80
2018-04-08T16:30:01.202Z,21.80
2018-04-08T16:32:29.727Z,21.80
2018-04-08T16:34:57.358Z,21.70
2018-04-08T16:37:25.734Z,21.50
2018-04-08T16:39:53.216Z,21.50
2018-04-08T16:42:21.450Z,21.50
2018-04-08T16:44:49.453Z,21.50
2018-04-08T16:47:17.013Z,21.40
2018-04-08T16:49:45.835Z,21.30
2018-04-08T16:52:14.086Z,21.30
2018-04-08T16:54:41.803Z,21.20
2018-04-08T16:57:10.314Z,21.10
2018-04-08T16:59:38.843Z,21.10
2018-04-08T17:02:10.444Z,21.00
2018-04-08T17:04:37.956Z,20.90
2018-04-08T17:07:05.762Z,20.80
2018-04-08T17:09:33.959Z,20.80
2018-04-08T17:12:01.514Z,20.70
2018-04-08T17:14:29.082Z,20.70
2018-04-08T17:16:57.040Z,20.70
2018-04-08T17:19:24.510Z,20.60
2018-04-08T17:21:52.743Z,20.50
2018-04-08T17:24:20.269Z,20.40
2018-04-08T17:26:47.739Z,20.30
2018-04-08T17:29:15.261Z,20.20
2018-04-08T17:31:44.546Z,20.20
2018-04-08T17:34:12.110Z,20.10
2018-04-08T17:36:40.377Z,19.90
2018-04-08T17:39:08.134Z,19.90
2018-04-08T17:41:35.605Z,19.80
2018-04-08T17:44:03.074Z,19.70
2018-04-08T17:46:31.366Z,19.50
2018-04-08T17:48:58.858Z,19.40
2018-04-08T17:51:26.350Z,19.40
2018-04-08T17:53:54.330Z,19.10
2018-04-08T17:56:21.910Z,19.00
2018-04-08T17:58:50.213Z,18.60
2018-04-08T18:01:18.081Z,18.50
2018-04-08T18:03:45.602Z,18.40
2018-04-08T18:06:13.834Z,18.10
2018-04-08T18:08:41.621Z,18.00
2018-04-08T18:11:10.594Z,17.70
2018-04-08T18:13:38.153Z,17.70
2018-04-08T18:16:07.763Z,17.80
2018-04-08T18:18:35.657Z,17.40
2018-04-08T18:21:03.683Z,17.10
2018-04-08T18:23:31.602Z,17.10
2018-04-08T18:25:59.474Z,17.70
2018-04-08T18:28:27.620Z,18.20
2018-04-08T18:30:55.560Z,18.00
2018-04-08T18:33:23.170Z,18.10
2018-04-08T18:35:50.633Z,17.50
2018-04-08T18:38:18.611Z,17.20
2018-04-08T18:40:46.109Z,17.10
2018-04-08T18:43:14.034Z,17.00
2018-04-08T18:45:41.831Z,16.80
2018-04-08T18:48:09.295Z,16.50
2018-04-08T18:50:36.909Z,16.30
2018-04-08T18:53:06.267Z,16.20
2018-04-08T18:55:33.893Z,16.10
2018-04-08T18:58:01.452Z,16.00
2018-04-08T19:00:29.091Z,15.90
2018-04-08T19:02:57.015Z,15.80
2018-04-08T19:05:25.253Z,15.60
2018-04-08T19:07:52.938Z,15.60
2018-04-08T19:10:21.584Z,15.60
2018-04-08T19:12:49.925Z,15.40
2018-04-08T19:15:21.154Z,15.20
2018-04-08T19:17:54.471Z,15.20
2018-04-08T19:20:22.743Z,15.10
2018-04-08T19:22:51.474Z,15.10
2018-04-08T19:25:19.425Z,15.10
2018-04-08T19:27:47.048Z,15.00
2018-04-08T19:30:21.530Z,14.90
2018-04-08T19:32:49.229Z,14.80
2018-04-08T19:35:17.153Z,14.60
2018-04-08T19:37:44.982Z,14.50
2018-04-08T19:40:13.870Z,14.30
2018-04-08T19:42:41.726Z,14.30
2018-04-08T19:45:09.293Z,14.30
2018-04-08T19:47:36.864Z,14.20
2018-04-08T19:50:04.626Z,14.20
2018-04-08T19:52:32.274Z,14.00
2018-04-08T19:55:05.610Z,14.00
2018-04-08T19:57:33.965Z,13.90
2018-04-08T20:00:01.490Z,14.00
2018-04-08T20:02:29.039Z,13.90
2018-04-08T20:04:56.539Z,13.80
2018-04-08T20:07:24.431Z,13.70
2018-04-08T20:09:52.694Z,13.50
2018-04-08T20:12:21.962Z,13.50
2018-04-08T20:14:49.759Z,13.40
2018-04-08T20:17:17.613Z,13.40
2018-04-08T20:19:45.073Z,13.50
2018-04-08T20:22:12.858Z,13.40
2018-04-08T20:24:41.243Z,13.30
2018-04-08T20:27:09.626Z,13.40
2018-04-08T20:29:37.972Z,13.40
2018-04-08T20:32:05.462Z,13.40
2018-04-08T20:34:33.722Z,13.30
2018-04-08T20:37:01.612Z,13.30
2018-04-08T20:39:29.108Z,13.30
2018-04-08T20:41:56.602Z,13.20
2018-04-08T20:44:24.253Z,13.10
2018-04-08T20:46:51.787Z,13.10
2018-04-08T20:49:19.433Z,13.10
2018-04-08T20:51:47.658Z,13.10
2018-04-08T20:54:15.727Z,13.10
2018-04-08T20:56:43.396Z,13.00
2018-04-08T20:59:12.075Z,13.00
2018-04-08T21:01:39.740Z,13.00
2018-04-08T21:04:07.214Z,13.10
2018-04-08T21:06:35.708Z,13.10
2018-04-08T21:09:03.329Z,13.10
2018-04-08T21:11:30.994Z,13.10
2018-04-08T21:13:58.655Z,13.10
2018-04-08T21:16:26.216Z,13.20
2018-04-08T21:18:54.590Z,13.20
2018-04-08T21:21:22.274Z,13.00
2018-04-08T21:23:50.735Z,12.80
2018-04-08T21:26:18.385Z,12.80
2018-04-08T21:28:45.958Z,12.80
2018-04-08T21:31:13.806Z,12.80
2018-04-08T21:33:41.474Z,12.70
2018-04-08T21:36:09.142Z,12.60
2018-04-08T21:38:37.016Z,12.70
2018-04-08T21:41:04.570Z,12.60
2018-04-08T21:43:32.039Z,12.60
2018-04-08T21:46:00.502Z,12.50
2018-04-08T21:48:28.070Z,12.50
2018-04-08T21:50:55.646Z,12.50
2018-04-08T21:53:24.215Z,12.70
2018-04-08T21:55:52.682Z,12.70
2018-04-08T21:58:20.372Z,12.70
2018-04-08T22:00:48.115Z,12.60
2018-04-08T22:03:15.775Z,12.40
2018-04-08T22:05:43.354Z,12.30
2018-04-08T22:08:11.705Z,12.10
2018-04-08T22:10:39.270Z,12.10
2018-04-08T22:13:06.810Z,12.10
2018-04-08T22:15:34.590Z,12.20
2018-04-08T22:18:02.149Z,12.10
2018-04-08T22:20:29.655Z,12.20
2018-04-08T22:22:57.294Z,12.20
2018-04-08T22:25:26.257Z,12.30
2018-04-08T22:27:54.622Z,12.30
2018-04-08T22:30:22.159Z,12.30
2018-04-08T22:32:49.966Z,12.30
2018-04-08T22:35:17.548Z,12.10
2018-04-08T22:37:46.213Z,12.00
2018-04-08T22:40:13.694Z,12.00
2018-04-08T22:42:42.155Z,12.00
2018-04-08T22:45:09.813Z,11.90
2018-04-08T22:47:37.490Z,11.90
2018-04-08T22:50:05.564Z,12.00
2018-04-08T22:52:34.045Z,11.90
2018-04-08T22:55:01.911Z,11.90
2018-04-08T22:57:29.514Z,11.80
2018-04-08T22:59:57.042Z,11.60
2018-04-08T23:02:25.411Z,11.60
2018-04-08T23:04:53.182Z,11.50
2018-04-08T23:07:20.747Z,11.40
2018-04-08T23:09:48.297Z,11.40
2018-04-08T23:12:16.288Z,11.30
2018-04-08T23:14:43.933Z,11.20
2018-04-08T23:17:11.497Z,11.20
2018-04-08T23:19:39.570Z,11.10
2018-04-08T23:22:07.536Z,11.20
2018-04-08T23:24:35.207Z,11.10
2018-04-08T23:27:02.768Z,11.10
2018-04-08T23:29:30.353Z,11.10
2018-04-08T23:31:58.993Z,11.00
2018-04-08T23:34:26.561Z,11.00
2018-04-08T23:36:54.245Z,11.00
2018-04-08T23:39:21.820Z,11.00
2018-04-08T23:41:50.091Z,11.00
2018-04-08T23:44:18.561Z,10.90
2018-04-08T23:46:46.222Z,10.90
2018-04-08T23:49:14.122Z,10.80
2018-04-08T23:51:42.449Z,10.80
2018-04-08T23:54:09.954Z,10.80
2018-04-08T23:56:38.614Z,10.60
2018-04-08T23:59:06.178Z,10.50
